createdAt,value
2019-03-22T19:17:06.999Z,29.07
2019-03-22T19:19:34.193Z,28.87
2019-03-22T19:22:01.365Z,30.57
2019-03-22T19:24:28.578Z,28.43
2019-03-22T19:26:55.746Z,27.37
2019-03-22T19:29:22.935Z,29.93
2019-03-22T19:31:50.116Z,29.70
2019-03-22T19:34:17.311Z,28.73
2019-03-22T19:36:44.530Z,28.30
2019-03-22T19:39:11.752Z,30.20
2019-03-22T19:41:38.948Z,28.63
2019-03-22T19:44:06.132Z,28.70
2019-03-22T19:46:33.314Z,31.13
2019-03-22T19:49:00.514Z,29.90
2019-03-22T19:51:27.705Z,30.20
2019-03-22T19:53:54.891Z,30.17
2019-03-22T19:56:22.181Z,33.70
2019-03-22T19:58:49.457Z,31.53
2019-03-22T20:01:16.634Z,29.17
2019-03-22T20:03:43.819Z,30.93
2019-03-22T20:06:11.021Z,29.57
2019-03-22T20:08:38.199Z,30.10
2019-03-22T20:11:05.405Z,31.20
2019-03-22T20:13:32.601Z,31.27
2019-03-22T20:15:59.802Z,29.33
2019-03-22T20:18:27.065Z,30.87
2019-03-22T20:20:54.240Z,29.87
2019-03-22T20:23:21.447Z,30.07
2019-03-22T20:25:48.638Z,29.33
2019-03-22T20:28:15.833Z,29.80
2019-03-22T20:30:43.047Z,29.20
2019-03-22T20:33:10.235Z,28.77
2019-03-22T20:35:37.412Z,30.73
2019-03-22T20:38:04.614Z,29.93
2019-03-22T20:40:31.800Z,28.73
2019-03-22T20:42:59.002Z,29.80
2019-03-22T20:45:26.191Z,30.93
2019-03-22T20:47:53.396Z,30.83
2019-03-22T20:50:20.585Z,30.47
2019-03-22T20:52:47.784Z,32.47
2019-03-22T20:55:14.972Z,31.57
2019-03-22T20:57:42.226Z,29.53
2019-03-22T21:00:12.797Z,30.23
2019-03-22T21:02:39.967Z,29.23
2019-03-22T21:05:07.187Z,29.83
2019-03-22T21:07:34.408Z,28.77
2019-03-22T21:10:01.625Z,31.87
2019-03-22T21:12:28.820Z,30.57
2019-03-22T21:14:55.992Z,32.47
2019-03-22T21:17:23.174Z,30.43
2019-03-22T21:19:50.370Z,30.23
2019-03-22T21:22:17.552Z,30.80
2019-03-22T21:24:44.735Z,31.23
2019-03-22T21:27:15.946Z,32.47
2019-03-22T21:29:44.351Z,32.10
2019-03-22T21:32:09.796Z,33.00
2019-03-22T21:34:37.231Z,32.37
2019-03-22T21:37:05.112Z,32.73
2019-03-22T21:39:32.318Z,34.83
2019-03-22T21:41:59.515Z,31.40
2019-03-22T21:44:26.749Z,32.37
2019-03-22T21:46:53.938Z,31.63
2019-03-22T21:49:21.127Z,33.23
2019-03-22T21:51:48.329Z,33.93
2019-03-22T21:54:15.494Z,31.53
2019-03-22T21:56:42.697Z,32.90
2019-03-22T21:59:09.907Z,34.37
2019-03-22T22:01:37.083Z,34.80
2019-03-22T22:04:04.269Z,32.67
2019-03-22T22:06:31.458Z,33.17
2019-03-22T22:08:58.650Z,31.60
2019-03-22T22:11:25.842Z,31.83
2019-03-22T22:13:53.026Z,32.93
2019-03-22T22:16:20.218Z,34.97
2019-03-22T22:18:47.407Z,33.70
2019-03-22T22:21:14.584Z,33.20
2019-03-22T22:23:41.766Z,34.07
2019-03-22T22:26:08.947Z,33.70
2019-03-22T22:28:36.131Z,34.20
2019-03-22T22:31:03.315Z,36.10
2019-03-22T22:33:30.503Z,33.00
2019-03-22T22:35:59.006Z,35.03
2019-03-22T22:38:26.344Z,32.97
2019-03-22T22:40:53.514Z,36.87
2019-03-22T22:43:20.718Z,37.40
2019-03-22T22:45:47.902Z,37.40
2019-03-22T22:48:15.137Z,34.90
2019-03-22T22:50:42.379Z,33.23
2019-03-22T22:53:09.562Z,35.93
2019-03-22T22:55:36.762Z,35.90
2019-03-22T22:58:03.955Z,37.47
2019-03-22T23:00:31.581Z,36.23
2019-03-22T23:02:58.763Z,35.00
2019-03-22T23:05:25.983Z,37.50
2019-03-22T23:07:53.166Z,37.07
2019-03-22T23:10:20.348Z,36.53
2019-03-22T23:12:47.548Z,35.97
2019-03-22T23:15:14.733Z,36.93
2019-03-22T23:17:41.985Z,35.67
2019-03-22T23:20:09.594Z,36.37
2019-03-22T23:22:36.779Z,35.37
2019-03-22T23:25:05.214Z,36.37
2019-03-22T23:27:32.416Z,36.93
2019-03-22T23:29:59.592Z,36.20
2019-03-22T23:32:26.795Z,38.40
2019-03-22T23:34:59.086Z,36.13
2019-03-22T23:37:22.917Z,38.17
2019-03-22T23:39:50.086Z,38.93
2019-03-22T23:42:17.303Z,36.83
2019-03-22T23:44:44.554Z,37.90
2019-03-22T23:47:11.735Z,39.07
2019-03-22T23:49:38.934Z,37.63
2019-03-22T23:52:06.117Z,35.10
2019-03-22T23:54:33.322Z,35.83
2019-03-22T23:57:00.499Z,36.37
2019-03-22T23:59:27.688Z,36.37
